createdAt,value
2023-03-29T06:51:07.298Z,22.20
2023-03-29T06:52:07.250Z,24.40
2023-03-29T06:53:07.170Z,26.60
2023-03-29T06:54:07.063Z,25.80
2023-03-29T06:55:08.268Z,30.80
2023-03-29T06:56:08.483Z,90.00
2023-03-29T06:57:08.353Z,91.00
2023-03-29T06:58:08.279Z,93.80
2023-03-29T06:59:08.251Z,119.30
2023-03-29T07:00:08.286Z,146.50
2023-03-29T07:01:08.202Z,137.10
2023-03-29T07:02:08.746Z,135.70
2023-03-29T07:03:08.355Z,112.00
2023-03-29T07:04:08.441Z,102.70
2023-03-29T07:05:08.304Z,89.90
2023-03-29T07:06:08.337Z,105.90
2023-03-29T07:07:08.397Z,120.50
2023-03-29T07:08:08.490Z,140.40
2023-03-29T07:09:08.299Z,153.20
2023-03-29T07:10:08.257Z,95.50
2023-03-29T07:11:08.259Z,281.10
2023-03-29T07:12:09.445Z,351.80
2023-03-29T07:13:08.288Z,328.90
2023-03-29T07:14:08.139Z,360.30
2023-03-29T07:15:08.161Z,327.00
2023-03-29T07:16:08.128Z,327.60
2023-03-29T07:17:08.283Z,376.70
2023-03-29T07:18:08.286Z,408.20
2023-03-29T07:19:08.233Z,442.10
2023-03-29T07:20:08.224Z,378.80
2023-03-29T07:21:08.366Z,473.30
2023-03-29T07:22:08.199Z,360.10
2023-03-29T07:23:08.279Z,366.40
2023-03-29T07:24:08.176Z,376.10
2023-03-29T07:25:08.207Z,362.40
2023-03-29T07:26:08.434Z,346.20
2023-03-29T07:27:08.175Z,335.40
2023-03-29T07:28:08.167Z,441.60
2023-03-29T07:29:08.327Z,332.00
2023-03-29T07:30:08.138Z,303.40
2023-03-29T07:31:08.389Z,370.50
2023-03-29T07:32:08.069Z,416.10
2023-03-29T07:33:08.129Z,439.70
2023-03-29T07:34:08.107Z,263.10
2023-03-29T07:35:07.993Z,260.80
2023-03-29T07:36:08.093Z,248.50
2023-03-29T07:37:07.945Z,265.50
2023-03-29T07:38:07.989Z,222.80
2023-03-29T07:39:07.993Z,398.10
2023-03-29T07:40:08.113Z,371.50
2023-03-29T07:41:08.243Z,245.90
2023-03-29T07:42:08.042Z,334.10
2023-03-29T07:43:08.391Z,227.20
2023-03-29T07:44:08.061Z,217.60
2023-03-29T07:45:09.165Z,291.10
2023-03-29T07:46:08.215Z,262.10
2023-03-29T07:47:07.978Z,230.30
2023-03-29T07:48:08.050Z,274.20
2023-03-29T07:49:08.035Z,368.30
2023-03-29T07:50:08.200Z,371.80
2023-03-29T07:51:07.978Z,341.90
2023-03-29T07:52:07.980Z,375.80
2023-03-29T07:53:07.877Z,208.70
2023-03-29T07:54:07.879Z,296.30
2023-03-29T07:55:07.942Z,184.90
2023-03-29T07:56:08.111Z,201.90
2023-03-29T07:57:07.901Z,256.80
2023-03-29T07:58:07.817Z,210.90
2023-03-29T07:59:07.973Z,233.90
2023-03-29T08:00:07.928Z,132.70
2023-03-29T08:01:08.071Z,174.60
2023-03-29T08:02:07.914Z,111.20
2023-03-29T08:03:07.935Z,129.80
2023-03-29T08:04:08.091Z,122.20
2023-03-29T08:05:07.977Z,189.00
2023-03-29T08:06:07.863Z,199.80
2023-03-29T08:07:07.923Z,193.40
2023-03-29T08:08:07.970Z,188.30
2023-03-29T08:09:08.040Z,157.20
2023-03-29T08:10:08.120Z,187.70
2023-03-29T08:11:07.918Z,190.30
2023-03-29T08:12:07.923Z,172.00
2023-03-29T08:13:07.915Z,202.90
2023-03-29T08:14:07.785Z,155.40
2023-03-29T08:15:07.765Z,228.00
2023-03-29T08:16:08.737Z,270.80
2023-03-29T08:17:07.759Z,241.50
2023-03-29T08:18:07.937Z,240.30
2023-03-29T08:19:07.672Z,227.60
2023-03-29T08:20:07.789Z,242.20
2023-03-29T08:21:07.747Z,222.40
2023-03-29T08:22:08.094Z,256.50
2023-03-29T08:23:07.837Z,222.20
2023-03-29T08:24:07.732Z,225.90
2023-03-29T08:25:07.709Z,224.30
2023-03-29T08:26:07.755Z,244.10
2023-03-29T08:27:07.667Z,239.30
2023-03-29T08:28:07.744Z,238.70
2023-03-29T08:29:07.862Z,246.00
2023-03-29T08:30:07.758Z,261.30
2023-03-29T08:31:08.495Z,350.90
2023-03-29T08:32:07.575Z,235.40
2023-03-29T08:33:07.632Z,289.10
2023-03-29T08:34:07.593Z,260.20
2023-03-29T08:35:07.571Z,257.00
2023-03-29T08:36:07.787Z,244.70
2023-03-29T08:37:07.571Z,308.50
2023-03-29T08:38:07.534Z,316.80
2023-03-29T08:39:07.560Z,218.60
2023-03-29T08:40:07.539Z,197.60
2023-03-29T08:41:07.603Z,206.10
2023-03-29T08:42:07.677Z,169.80
2023-03-29T08:43:07.632Z,255.00
2023-03-29T08:44:07.645Z,262.90
2023-03-29T08:45:07.638Z,269.50
2023-03-29T08:46:07.627Z,198.10
2023-03-29T08:47:07.525Z,231.90
2023-03-29T08:48:07.985Z,222.60
2023-03-29T08:49:07.566Z,222.60
2023-03-29T08:50:07.580Z,260.80
2023-03-29T08:51:09.460Z,215.40
2023-03-29T08:52:08.651Z,220.80
2023-03-29T08:53:07.599Z,194.00
2023-03-29T08:54:07.495Z,189.20
2023-03-29T08:55:07.445Z,192.10
2023-03-29T08:56:07.827Z,175.10
2023-03-29T08:57:07.645Z,200.80
2023-03-29T08:58:07.433Z,155.40
2023-03-29T08:59:07.428Z,175.00
2023-03-29T09:00:07.404Z,234.10
2023-03-29T09:01:07.557Z,218.50
2023-03-29T09:02:07.804Z,181.00
2023-03-29T09:03:07.456Z,211.80
2023-03-29T09:06:26.500Z,272.10
2023-03-29T09:09:46.811Z,111.40
2023-03-29T09:10:48.120Z,81.40
2023-03-29T09:11:47.994Z,75.70
2023-03-29T09:12:48.026Z,72.30
2023-03-29T09:13:48.182Z,69.60
2023-03-29T09:14:48.046Z,65.50
2023-03-29T09:15:48.182Z,67.50
2023-03-29T09:16:48.046Z,77.00
2023-03-29T09:17:49.609Z,114.10
2023-03-29T09:18:49.078Z,105.30
2023-03-29T09:19:49.145Z,122.50
2023-03-29T09:20:48.014Z,124.70
2023-03-29T09:21:48.029Z,126.00
2023-03-29T09:22:48.010Z,129.80
2023-03-29T09:23:48.402Z,138.10
2023-03-29T09:24:48.142Z,106.10
2023-03-29T09:25:53.363Z,83.40
2023-03-29T09:26:49.973Z,89.40
2023-03-29T09:27:47.864Z,67.20
2023-03-29T09:28:47.916Z,70.60
2023-03-29T09:29:47.890Z,90.10
2023-03-29T09:30:47.932Z,86.30
2023-03-29T09:31:47.993Z,79.20
2023-03-29T09:32:47.950Z,82.90
2023-03-29T09:33:47.820Z,70.10
2023-03-29T09:34:47.858Z,112.50
2023-03-29T09:35:47.944Z,124.70
2023-03-29T09:36:48.088Z,200.40
2023-03-29T09:37:47.916Z,206.10
2023-03-29T09:38:48.049Z,186.70
2023-03-29T09:39:48.216Z,113.20
2023-03-29T09:40:47.906Z,226.30
2023-03-29T09:41:47.968Z,119.50
2023-03-29T09:42:47.909Z,111.70
2023-03-29T09:43:48.037Z,103.40
2023-03-29T09:44:48.199Z,76.90
2023-03-29T09:45:47.971Z,69.10
2023-03-29T09:46:47.739Z,177.30
2023-03-29T09:47:47.867Z,94.90
2023-03-29T09:48:47.718Z,82.50
2023-03-29T09:49:47.844Z,102.00
2023-03-29T09:50:47.835Z,87.30
2023-03-29T09:51:48.088Z,89.50
2023-03-29T09:52:47.890Z,88.30
2023-03-29T09:53:47.947Z,111.10
2023-03-29T09:54:47.794Z,89.90
2023-03-29T09:55:49.093Z,96.90
2023-03-29T09:56:49.089Z,111.00
2023-03-29T09:57:47.792Z,225.00
2023-03-29T09:58:48.134Z,174.40
2023-03-29T09:59:47.804Z,119.50
2023-03-29T10:00:47.754Z,122.50
2023-03-29T10:01:47.792Z,264.40
2023-03-29T10:02:47.956Z,154.20
2023-03-29T10:03:47.702Z,160.60
2023-03-29T10:04:47.728Z,190.90
2023-03-29T10:05:47.611Z,261.40
2023-03-29T10:06:47.652Z,197.50
2023-03-29T10:07:47.616Z,320.20
2023-03-29T10:08:47.612Z,315.00
2023-03-29T10:09:47.783Z,303.00
2023-03-29T10:10:47.715Z,319.90
2023-03-29T10:11:47.698Z,344.00
2023-03-29T10:12:48.004Z,348.10
2023-03-29T10:13:47.619Z,346.40
2023-03-29T10:14:47.861Z,318.40
2023-03-29T10:15:47.651Z,325.00
2023-03-29T10:16:48.000Z,273.00
2023-03-29T10:17:47.633Z,275.30
2023-03-29T10:18:47.799Z,300.20
2023-03-29T10:19:47.620Z,319.60
2023-03-29T10:20:47.651Z,293.60
2023-03-29T10:21:47.533Z,279.20
2023-03-29T10:22:47.504Z,284.70
2023-03-29T10:23:47.618Z,296.80
2023-03-29T10:24:47.464Z,335.10
2023-03-29T10:25:47.542Z,355.20
2023-03-29T10:26:47.539Z,318.60
2023-03-29T10:27:47.544Z,276.70
2023-03-29T10:28:47.584Z,269.30
2023-03-29T10:29:47.626Z,228.10
2023-03-29T10:30:47.563Z,271.90
2023-03-29T10:31:47.670Z,281.40
2023-03-29T10:32:47.572Z,303.20
2023-03-29T10:33:47.624Z,233.40
2023-03-29T10:34:47.560Z,358.20
2023-03-29T10:35:47.620Z,360.20
2023-03-29T10:36:47.851Z,384.70
2023-03-29T10:37:47.629Z,380.50
2023-03-29T10:38:47.617Z,286.60
2023-03-29T10:39:47.449Z,357.40
2023-03-29T10:40:47.547Z,408.30
2023-03-29T10:41:48.596Z,397.00
2023-03-29T10:42:47.389Z,445.70
2023-03-29T10:43:47.505Z,359.30
2023-03-29T10:44:47.417Z,490.80
2023-03-29T10:45:47.616Z,519.90
2023-03-29T10:46:47.497Z,374.90
2023-03-29T10:47:47.486Z,358.60
2023-03-29T10:48:47.722Z,353.60
2023-03-29T10:49:47.946Z,364.40
2023-03-29T10:50:47.436Z,368.30
2023-03-29T10:51:47.413Z,307.40
2023-03-29T10:52:47.570Z,226.70
2023-03-29T10:53:47.305Z,308.80
2023-03-29T10:54:47.310Z,402.00
2023-03-29T10:55:47.590Z,410.80
2023-03-29T10:56:47.392Z,387.40
2023-03-29T10:57:47.306Z,369.00
2023-03-29T10:58:47.745Z,421.50
2023-03-29T10:59:47.379Z,368.90
2023-03-29T11:00:47.390Z,346.70
2023-03-29T11:01:47.752Z,405.90
2023-03-29T11:02:47.468Z,408.00
2023-03-29T11:03:47.570Z,458.10
2023-03-29T11:04:47.304Z,423.70
2023-03-29T11:05:47.340Z,421.30
2023-03-29T11:06:47.410Z,445.10
2023-03-29T11:07:47.427Z,429.10
2023-03-29T11:08:47.328Z,462.70
2023-03-29T11:09:47.686Z,439.70
2023-03-29T11:10:47.346Z,374.50
2023-03-29T11:11:47.202Z,402.90
2023-03-29T11:12:47.146Z,499.30
2023-03-29T11:13:47.142Z,477.30
2023-03-29T11:14:47.354Z,419.30
2023-03-29T11:15:47.582Z,424.20
2023-03-29T11:16:47.692Z,421.30
2023-03-29T11:17:47.445Z,399.50
2023-03-29T11:18:47.356Z,424.60
2023-03-29T11:19:47.979Z,389.60
2023-03-29T11:20:47.633Z,375.80
2023-03-29T11:21:47.538Z,313.00
2023-03-29T11:22:47.222Z,310.90
2023-03-29T11:23:47.391Z,366.90
2023-03-29T11:24:47.133Z,287.80
2023-03-29T11:25:47.138Z,317.20
2023-03-29T11:26:47.087Z,320.40
2023-03-29T11:27:47.129Z,370.90
2023-03-29T11:28:47.045Z,282.70
2023-03-29T11:29:47.050Z,319.00
2023-03-29T11:30:47.196Z,319.30
2023-03-29T11:31:47.277Z,330.50
2023-03-29T11:32:47.295Z,302.40
2023-03-29T11:33:47.271Z,272.70
2023-03-29T11:34:47.148Z,294.00
2023-03-29T11:35:47.226Z,281.90
2023-03-29T11:36:47.140Z,311.30
2023-03-29T11:37:47.277Z,282.60
2023-03-29T11:38:47.124Z,295.60
2023-03-29T11:39:47.454Z,282.90
2023-03-29T11:40:47.255Z,277.00
2023-03-29T11:41:47.526Z,328.40
2023-03-29T11:42:47.173Z,257.20
2023-03-29T11:43:46.984Z,305.40
2023-03-29T11:44:47.032Z,331.20
2023-03-29T11:45:47.285Z,416.90
2023-03-29T11:46:47.067Z,352.80
2023-03-29T11:47:47.055Z,412.40
2023-03-29T11:48:46.920Z,381.80
2023-03-29T11:49:46.920Z,405.60
2023-03-29T11:50:46.959Z,397.20
2023-03-29T11:51:46.981Z,402.30
2023-03-29T11:52:47.029Z,384.80
2023-03-29T11:53:46.991Z,424.20
2023-03-29T11:54:46.914Z,397.90
2023-03-29T11:55:46.943Z,467.60
2023-03-29T11:56:47.318Z,401.80
2023-03-29T11:57:47.026Z,382.40
2023-03-29T11:58:46.897Z,399.60
2023-03-29T11:59:46.990Z,370.60
2023-03-29T12:00:46.957Z,401.50
2023-03-29T12:01:47.037Z,451.10
2023-03-29T12:02:47.090Z,348.40
2023-03-29T12:03:47.505Z,453.20
2023-03-29T12:04:46.827Z,424.00
2023-03-29T12:05:46.733Z,400.00
2023-03-29T12:06:46.903Z,413.10
2023-03-29T12:07:46.825Z,416.00
2023-03-29T12:08:47.241Z,436.50
2023-03-29T12:09:47.001Z,383.60
2023-03-29T12:10:46.805Z,473.80
2023-03-29T12:11:47.327Z,457.90
2023-03-29T12:12:46.849Z,425.00
2023-03-29T12:13:46.905Z,431.70
2023-03-29T12:14:46.881Z,406.10
2023-03-29T12:15:46.791Z,490.60
2023-03-29T12:16:46.969Z,449.00
2023-03-29T12:17:46.899Z,491.60
2023-03-29T12:18:46.713Z,435.60
2023-03-29T12:19:46.804Z,427.20
2023-03-29T12:20:46.850Z,435.90
2023-03-29T12:21:46.677Z,473.30
2023-03-29T12:22:46.690Z,476.30
2023-03-29T12:23:46.634Z,461.40
2023-03-29T12:24:46.799Z,454.30
2023-03-29T12:25:46.725Z,423.50
2023-03-29T12:26:46.880Z,383.00
2023-03-29T12:27:46.737Z,411.80
2023-03-29T12:28:46.830Z,411.10
2023-03-29T12:29:46.770Z,586.00
2023-03-29T12:30:47.025Z,618.50
2023-03-29T12:31:46.758Z,538.10
2023-03-29T12:32:46.863Z,574.30
2023-03-29T12:33:47.013Z,451.60
2023-03-29T12:34:46.944Z,516.40
2023-03-29T12:35:46.784Z,495.50
2023-03-29T12:36:46.581Z,504.60
2023-03-29T12:37:46.588Z,556.70
2023-03-29T12:38:46.985Z,498.20
2023-03-29T12:39:46.850Z,523.00
2023-03-29T12:40:46.730Z,518.30
2023-03-29T12:41:46.709Z,599.80
2023-03-29T12:42:46.767Z,537.60
2023-03-29T12:43:46.649Z,648.00
2023-03-29T12:44:46.610Z,605.90
2023-03-29T12:45:47.987Z,600.50
2023-03-29T12:46:47.419Z,532.30
2023-03-29T12:47:46.840Z,564.60
2023-03-29T12:48:46.657Z,609.60
2023-03-29T12:49:46.629Z,636.60
2023-03-29T12:50:47.074Z,657.10
2023-03-29T12:51:46.480Z,682.60
2023-03-29T12:52:46.510Z,605.60
2023-03-29T12:53:46.707Z,595.30
2023-03-29T12:54:46.455Z,640.90
2023-03-29T12:55:46.470Z,662.00
2023-03-29T12:56:46.776Z,695.40
2023-03-29T12:57:46.498Z,636.00
2023-03-29T12:58:46.784Z,668.20
2023-03-29T12:59:46.514Z,730.30
2023-03-29T13:00:47.131Z,782.90
2023-03-29T13:01:47.389Z,679.10
2023-03-29T13:02:46.435Z,824.50
2023-03-29T13:03:47.879Z,781.70
2023-03-29T13:04:46.699Z,613.90
2023-03-29T13:05:46.542Z,574.60
2023-03-29T13:06:46.457Z,481.20
2023-03-29T13:07:46.645Z,539.40
2023-03-29T13:08:46.655Z,564.00
2023-03-29T13:09:46.493Z,562.30
2023-03-29T13:10:46.370Z,481.70
2023-03-29T13:11:46.348Z,501.10
2023-03-29T13:12:47.464Z,491.90
2023-03-29T13:13:46.278Z,705.80
2023-03-29T13:14:46.512Z,762.70
2023-03-29T13:15:46.491Z,629.00
2023-03-29T13:16:46.513Z,675.00
2023-03-29T13:17:46.429Z,702.00
2023-03-29T13:18:46.547Z,705.00
2023-03-29T13:19:46.417Z,644.30
2023-03-29T13:20:46.421Z,647.30
2023-03-29T13:21:46.518Z,674.60
2023-03-29T13:22:46.374Z,641.70
2023-03-29T13:23:46.266Z,604.30
2023-03-29T13:24:46.248Z,552.90
2023-03-29T13:25:46.748Z,592.00
2023-03-29T13:26:46.308Z,472.80
2023-03-29T13:27:46.239Z,445.80
2023-03-29T13:28:46.226Z,354.40
2023-03-29T13:29:46.207Z,326.50
2023-03-29T13:30:46.587Z,340.70
2023-03-29T13:31:46.319Z,339.30
2023-03-29T13:32:46.629Z,352.50
2023-03-29T13:33:46.423Z,304.10
2023-03-29T13:34:46.243Z,335.80
2023-03-29T13:35:46.297Z,252.80
2023-03-29T13:36:46.299Z,354.80
2023-03-29T13:37:46.315Z,312.50
2023-03-29T13:38:46.285Z,314.10
2023-03-29T13:39:46.608Z,394.40
2023-03-29T13:40:46.208Z,480.10
2023-03-29T13:41:46.553Z,585.60
2023-03-29T13:42:47.228Z,457.40
2023-03-29T13:43:47.253Z,399.80
2023-03-29T13:44:46.139Z,448.10
2023-03-29T13:45:46.187Z,417.70
2023-03-29T13:46:46.317Z,578.10
2023-03-29T13:47:58.333Z,581.70
2023-03-29T13:48:48.092Z,594.40
2023-03-29T13:49:46.140Z,596.00
2023-03-29T13:50:46.131Z,545.90
2023-03-29T13:51:46.158Z,635.90
2023-03-29T13:52:46.475Z,632.70
2023-03-29T13:53:46.185Z,692.90
